TimeCDT,TemperatureF,Dew PointF,Humidity,Sea Level PressureIn,VisibilityMPH,Wind Direction,Wind SpeedMPH,Gust SpeedMPH,PrecipitationIn,Events,Conditions,WindDirDegrees,DateUTC
12:55 AM,73.9,66.0,76,29.63,10.0,South,16.1,-,N/A,,Clear,170,2013-10-04 05:55:00
1:55 AM,75.0,64.9,71,29.62,10.0,South,19.6,29.9,N/A,,Clear,170,2013-10-04 06:55:00
2:55 AM,75.0,64.9,71,29.62,10.0,South,19.6,-,N/A,,Clear,170,2013-10-04 07:55:00
3:55 AM,73.9,64.9,73,29.60,10.0,South,21.9,28.8,N/A,,Clear,170,2013-10-04 08:55:00
4:55 AM,73.0,64.9,76,29.60,10.0,South,19.6,27.6,N/A,,Clear,170,2013-10-04 09:55:00
5:55 AM,72.0,66.0,81,29.61,10.0,SSE,19.6,-,N/A,,Clear,160,2013-10-04 10:55:00
6:55 AM,71.1,66.0,84,29.62,10.0,SSE,15.0,-,N/A,,Clear,160,2013-10-04 11:55:00
7:55 AM,71.1,66.0,84,29.62,9.0,SSE,13.8,-,N/A,,Clear,160,2013-10-04 12:55:00
8:55 AM,75.0,66.9,76,29.63,10.0,South,20.7,25.3,N/A,,Partly Cloudy,180,2013-10-04 13:55:00
9:55 AM,77.0,66.0,69,29.63,10.0,South,17.3,29.9,N/A,,Clear,180,2013-10-04 14:55:00
10:55 AM,80.1,66.0,62,29.62,10.0,South,28.8,34.5,N/A,,Clear,190,2013-10-04 15:55:00
11:55 AM,82.9,64.9,54,29.62,10.0,South,26.5,34.5,N/A,,Clear,180,2013-10-04 16:55:00
12:55 PM,84.9,63.0,48,29.61,10.0,SSW,28.8,38.0,N/A,,Partly Cloudy,200,2013-10-04 17:55:00
1:55 PM,88.0,59.0,37,29.60,10.0,SSW,28.8,39.1,N/A,,Scattered Clouds,200,2013-10-04 18:55:00
2:55 PM,84.0,51.1,32,29.62,10.0,WSW,19.6,32.2,N/A,,Clear,240,2013-10-04 19:55:00
3:55 PM,81.0,55.0,41,29.65,10.0,West,24.2,32.2,N/A,,Clear,270,2013-10-04 20:55:00
4:55 PM,75.9,54.0,46,29.68,10.0,West,23.0,38.0,N/A,,Clear,270,2013-10-04 21:55:00
5:55 PM,70.0,48.0,46,29.73,10.0,West,28.8,35.7,N/A,,Clear,280,2013-10-04 22:55:00
6:55 PM,64.0,41.0,43,29.82,10.0,West,16.1,26.5,N/A,,Clear,280,2013-10-04 23:55:00
7:55 PM,59.0,37.9,46,29.87,10.0,WNW,20.7,-,N/A,,Clear,300,2013-10-05 00:55:00
8:55 PM,55.9,33.1,42,29.92,10.0,WNW,20.7,31.1,N/A,,Partly Cloudy,300,2013-10-05 01:55:00
9:55 PM,52.0,32.0,47,29.94,10.0,WNW,17.3,-,N/A,,Mostly Cloudy,300,2013-10-05 02:55:00
10:55 PM,50.0,30.9,48,29.97,10.0,WNW,17.3,24.2,N/A,,Overcast,290,2013-10-05 03:55:00
11:55 PM,48.0,30.9,52,29.99,10.0,WNW,13.8,-,N/A,,Overcast,290,2013-10-05 04:55:00